Ithaca College, New York
Current Conditions -  °F | °C
As of 12:56 PM on Monday 22 Dec 2014 (Local Time) from KITH Reporting Station
Broken Clouds Broken Clouds  
Wind Chill: 25°   Ceiling: 1900
Heat Index: 35°   Visibility: 10mi
Dew Point: 27°   Wind: 16mph
Humidity: 73%   Direction: 160°SSE
Pressure: 30.18"   Gusts: NA
Location:  42.432°N, 76.4974°W
Report Text: KITH 221756Z 16014KT 10SM BKN019 02/M03 A3018 RMK AO2 58029 T00161027 10016 21011 SLP233
Loading
Personal Weather Stations






























Interactive Weather Map New forecast layout! Learn more

10-Day Weather Forecast

Advertisements
Track Severe Weather on mobile